Time;durP1;ratioP1;P1;durP2;ratioP2;P2;SDS_P1;SDS_P2;PMS_P1;PMS_P2;Temp;Humidity;BMP_temperature;BMP_pressure;BME280_temperature;BME280_humidity;BME280_pressure;Samples;Min_cycle;Max_cycle;Signal;HPM_P1;HPM_P2
2023/01/30 00:01:19;;;;;;;19.83;15.37;;;-0.20;98.60;;;;;;5015677;28;20268;-89
2023/01/30 00:03:45;;;;;;;19.30;15.03;;;-0.20;99.10;;;;;;5016702;28;20230;-89
2023/01/30 00:06:11;;;;;;;19.27;15.50;;;-0.30;99.70;;;;;;5015974;28;20206;-88
2023/01/30 00:08:37;;;;;;;18.80;15.90;;;-0.30;99.30;;;;;;5016018;28;20193;-88
2023/01/30 00:11:08;;;;;;;19.67;15.17;;;-0.30;99.50;;;;;;5016112;28;20186;-88
2023/01/30 00:13:34;;;;;;;18.17;15.03;;;-0.40;99.90;;;;;;5016285;28;20185;-88
2023/01/30 00:16:00;;;;;;;18.27;15.80;;;-0.50;99.90;;;;;;5016556;28;20631;-87
2023/01/30 00:18:26;;;;;;;19.33;15.87;;;-0.30;99.90;;;;;;5015462;28;20178;-87
2023/01/30 00:20:56;;;;;;;17.70;14.40;;;-0.30;99.90;;;;;;5015072;28;20247;-88
2023/01/30 00:23:21;;;;;;;18.07;15.67;;;-0.40;99.90;;;;;;5014873;28;20190;-87
2023/01/30 00:25:47;;;;;;;20.57;16.10;;;-0.40;99.90;;;;;;5014477;28;20198;-88
2023/01/30 00:28:13;;;;;;;19.00;15.13;;;-0.40;99.90;;;;;;5010832;28;20226;-88
2023/01/30 00:30:38;;;;;;;17.93;14.93;;;-0.40;99.90;;;;;;5014549;28;20181;-87
2023/01/30 00:33:04;;;;;;;19.10;14.73;;;-0.30;99.40;;;;;;4998435;28;20669;-88
2023/01/30 00:35:29;;;;;;;20.37;15.90;;;-0.30;99.10;;;;;;5016911;28;20192;-88
2023/01/30 00:37:57;;;;;;;18.07;15.20;;;-0.30;98.80;;;;;;5021161;28;20177;-88
2023/01/30 00:40:24;;;;;;;19.10;15.03;;;-0.40;99.00;;;;;;5021456;28;20252;-87
2023/01/30 00:48:20;;;;;;;18.90;15.00;;;-0.40;99.40;;;;;;5020536;28;20164;-88
2023/01/30 00:50:45;;;;;;;21.10;16.07;;;-0.50;99.90;;;;;;5020337;28;20181;-88
2023/01/30 00:53:13;;;;;;;20.37;17.33;;;-0.40;99.80;;;;;;5019329;28;20174;-88
2023/01/30 00:55:39;;;;;;;20.47;16.43;;;-0.60;99.60;;;;;;5019403;28;20766;-88
2023/01/30 00:58:05;;;;;;;23.87;18.10;;;-0.70;99.90;;;;;;5019606;28;20232;-87
2023/01/30 01:00:31;;;;;;;21.00;17.50;;;-0.80;99.90;;;;;;5022753;28;20250;-86
2023/01/30 01:02:57;;;;;;;19.53;15.87;;;-0.80;99.90;;;;;;5023008;28;20217;-88
2023/01/30 01:05:23;;;;;;;21.57;17.57;;;-0.70;99.90;;;;;;5023972;28;20178;-90
2023/01/30 01:07:48;;;;;;;19.63;16.93;;;-0.80;99.90;;;;;;5035137;28;20242;-88
2023/01/30 01:10:15;;;;;;;23.27;16.97;;;-0.70;99.90;;;;;;5033596;28;20177;-89
2023/01/30 01:12:45;;;;;;;19.73;16.90;;;-0.60;99.90;;;;;;5031755;28;20249;-89
2023/01/30 01:15:12;;;;;;;23.50;17.13;;;-0.70;99.90;;;;;;5011745;28;20204;-89
2023/01/30 01:17:38;;;;;;;22.07;17.00;;;-0.70;99.90;;;;;;5030677;28;20213;-89
2023/01/30 01:20:05;;;;;;;20.20;15.57;;;-0.70;99.90;;;;;;5022100;28;20200;-89
2023/01/30 01:22:31;;;;;;;22.00;17.07;;;-0.70;99.90;;;;;;5022100;28;20624;-89
2023/01/30 01:24:56;;;;;;;19.90;16.17;;;-0.60;99.90;;;;;;5020317;28;20194;-89
2023/01/30 01:27:22;;;;;;;21.80;16.97;;;-0.60;99.90;;;;;;5020377;28;20212;-89
2023/01/30 01:29:48;;;;;;;23.97;16.97;;;-0.80;99.90;;;;;;5021323;28;20184;-88
2023/01/30 01:32:14;;;;;;;25.50;18.00;;;-0.80;99.90;;;;;;5021272;28;20194;-89
2023/01/30 01:34:39;;;;;;;22.17;17.97;;;-0.90;99.90;;;;;;5021899;28;20635;-90
2023/01/30 01:37:05;;;;;;;25.20;18.57;;;-0.90;99.90;;;;;;5021422;28;20230;-89
2023/01/30 01:42:15;;;;;;;22.87;17.27;;;-0.90;99.90;;;;;;5021146;28;20232;-88
2023/01/30 01:45:03;;;;;;;24.63;18.53;;;-0.80;99.90;;;;;;5002928;28;20182;-89
2023/01/30 01:47:30;;;;;;;22.17;16.50;;;-0.80;99.90;;;;;;5011020;28;20703;-90
2023/01/30 01:49:55;;;;;;;21.07;15.97;;;-0.80;99.90;;;;;;5020963;28;20544;-89
2023/01/30 01:52:22;;;;;;;20.77;16.27;;;-0.80;99.90;;;;;;5020651;28;20181;-89
2023/01/30 01:55:01;;;;;;;23.47;16.10;;;-0.80;99.90;;;;;;5003260;28;20273;-89
2023/01/30 01:57:38;;;;;;;21.30;16.80;;;-0.80;99.90;;;;;;5021866;28;20586;-89
2023/01/30 02:00:10;;;;;;;21.80;16.83;;;-0.80;99.90;;;;;;5021921;28;20245;-90
2023/01/30 02:02:39;;;;;;;24.00;15.70;;;-0.80;99.90;;;;;;5002713;28;20209;-91
2023/01/30 02:05:05;;;;;;;20.90;15.63;;;-0.60;99.90;;;;;;5021210;28;20217;-89
2023/01/30 02:07:36;;;;;;;18.40;15.40;;;-0.60;99.90;;;;;;5020920;28;20214;-88
2023/01/30 02:10:03;;;;;;;21.83;16.03;;;-0.50;99.90;;;;;;5021856;28;20203;-90
2023/01/30 02:12:29;;;;;;;20.80;16.27;;;-0.60;99.90;;;;;;5002356;28;20247;-88
2023/01/30 02:14:57;;;;;;;24.40;17.30;;;-0.60;99.90;;;;;;5004756;28;20813;-90
2023/01/30 02:17:24;;;;;;;20.90;14.83;;;-0.70;99.90;;;;;;5022947;28;20718;-90
2023/01/30 02:20:13;;;;;;;17.87;15.80;;;-0.80;99.90;;;;;;5024385;28;20185;-89
2023/01/30 02:23:23;;;;;;;19.60;15.23;;;-0.80;99.90;;;;;;5008513;28;20225;-89
2023/01/30 02:25:57;;;;;;;23.93;15.67;;;-0.70;99.90;;;;;;4962514;29;20397;-89
2023/01/30 02:28:29;;;;;;;20.87;15.97;;;-0.70;99.90;;;;;;4984218;28;20253;-86
2023/01/30 02:31:01;;;;;;;23.00;16.70;;;-0.80;99.90;;;;;;5007359;28;20217;-91
2023/01/30 02:33:29;;;;;;;19.10;15.17;;;-0.70;99.90;;;;;;5024896;28;20217;-89
2023/01/30 02:36:08;;;;;;;17.77;14.13;;;-0.60;99.90;;;;;;5023170;28;20287;-90
2023/01/30 02:38:53;;;;;;;21.10;16.33;;;-0.60;99.90;;;;;;5023818;28;20190;-90
2023/01/30 02:41:35;;;;;;;24.43;16.87;;;-0.70;99.90;;;;;;5024576;28;20192;-90
2023/01/30 02:44:08;;;;;;;19.87;15.50;;;-0.70;99.90;;;;;;5019766;28;20180;-88
2023/01/30 02:46:57;;;;;;;19.27;15.80;;;-0.70;99.90;;;;;;5019952;28;20213;-89
2023/01/30 02:49:36;;;;;;;22.97;15.40;;;-0.70;99.90;;;;;;5022105;28;20162;-91
2023/01/30 02:52:04;;;;;;;18.40;13.80;;;-0.70;99.90;;;;;;5020082;28;20193;-89
2023/01/30 02:54:29;;;;;;;17.27;14.23;;;-0.60;99.90;;;;;;5019864;28;20178;-89
2023/01/30 02:56:58;;;;;;;17.67;14.60;;;-0.50;99.90;;;;;;5020308;28;20212;-89
2023/01/30 02:59:31;;;;;;;17.90;14.27;;;-0.50;99.20;;;;;;5020401;28;20190;-89
2023/01/30 03:02:00;;;;;;;16.90;13.57;;;-0.40;98.30;;;;;;5020540;28;20201;-88
2023/01/30 03:04:47;;;;;;;16.17;13.10;;;-0.30;97.80;;;;;;5021982;28;20219;-89
2023/01/30 03:07:33;;;;;;;16.47;13.60;;;-0.30;98.30;;;;;;5038905;28;20240;-91
2023/01/30 03:10:13;;;;;;;16.70;14.53;;;-0.40;98.80;;;;;;5039179;28;20182;-91
2023/01/30 03:13:03;;;;;;;16.30;13.60;;;-0.50;99.80;;;;;;5039812;28;20188;-91
2023/01/30 03:15:41;;;;;;;16.60;13.97;;;-0.50;99.90;;;;;;5039928;28;20158;-90
2023/01/30 03:18:07;;;;;;;20.27;14.80;;;-0.60;99.90;;;;;;5025193;28;20181;-89
2023/01/30 03:20:38;;;;;;;16.23;14.50;;;-0.50;99.90;;;;;;5023205;28;20173;-88
2023/01/30 03:23:04;;;;;;;18.77;14.37;;;-0.50;99.90;;;;;;5021713;28;20208;-89
2023/01/30 03:25:31;;;;;;;17.13;13.80;;;-0.50;99.90;;;;;;5004433;28;20178;-89
2023/01/30 03:27:57;;;;;;;16.97;13.37;;;-0.40;99.90;;;;;;5021885;28;20189;-90
2023/01/30 03:30:26;;;;;;;17.07;13.00;;;-0.40;99.60;;;;;;5022523;28;20242;-88
2023/01/30 03:32:51;;;;;;;16.00;13.70;;;-0.40;99.20;;;;;;5003804;28;20265;-89
2023/01/30 03:35:17;;;;;;;18.80;14.70;;;-0.30;99.40;;;;;;5002312;28;20208;-90
2023/01/30 03:37:44;;;;;;;19.87;14.33;;;-0.40;99.80;;;;;;5021090;28;20659;-89
2023/01/30 03:40:12;;;;;;;15.00;13.03;;;-0.40;99.90;;;;;;5021585;28;20169;-89
2023/01/30 03:42:37;;;;;;;13.27;11.07;;;-0.30;99.50;;;;;;5021011;28;20202;-90
2023/01/30 03:45:04;;;;;;;19.43;13.67;;;-0.30;99.30;;;;;;5002649;28;20240;-89
2023/01/30 03:47:29;;;;;;;16.90;13.27;;;-0.20;99.00;;;;;;5021353;28;20563;-90
2023/01/30 03:49:55;;;;;;;14.57;12.03;;;-0.20;98.90;;;;;;5021647;28;20184;-90
2023/01/30 03:52:21;;;;;;;18.63;16.10;;;-0.20;98.50;;;;;;5022183;28;20209;-90
2023/01/30 03:54:46;;;;;;;15.73;13.63;;;-0.10;98.60;;;;;;5022345;28;20223;-90
2023/01/30 03:57:12;;;;;;;16.33;12.87;;;-0.20;98.70;;;;;;5021182;28;20216;-89
2023/01/30 03:59:37;;;;;;;18.60;14.13;;;-0.20;98.00;;;;;;5022745;28;20189;-90
2023/01/30 04:02:03;;;;;;;15.50;12.83;;;-0.20;98.50;;;;;;5021315;28;20208;-89
2023/01/30 04:04:29;;;;;;;15.13;12.83;;;-0.10;97.50;;;;;;5020964;28;20548;-91
2023/01/30 04:06:55;;;;;;;18.07;13.70;;;0.00;97.70;;;;;;5019918;28;20217;-88
2023/01/30 04:09:21;;;;;;;15.97;12.80;;;-0.10;98.10;;;;;;5020656;28;20229;-90
2023/01/30 04:11:48;;;;;;;17.57;12.60;;;0.10;96.80;;;;;;5019944;28;20237;-89
2023/01/30 04:14:13;;;;;;;16.37;13.53;;;-0.10;98.20;;;;;;5001432;28;20194;-89
2023/01/30 04:16:39;;;;;;;13.13;11.53;;;0.00;97.80;;;;;;5018150;28;20277;-89
2023/01/30 04:19:05;;;;;;;12.90;11.03;;;0.10;96.40;;;;;;5018999;28;20189;-89
2023/01/30 04:21:30;;;;;;;13.70;11.77;;;0.10;96.10;;;;;;5020009;28;20186;-87
2023/01/30 04:23:56;;;;;;;15.77;11.47;;;0.20;95.20;;;;;;5019265;28;20256;-90
2023/01/30 04:26:22;;;;;;;13.13;10.53;;;0.10;95.90;;;;;;5032973;28;20205;-90
2023/01/30 04:28:47;;;;;;;15.03;11.53;;;0.30;94.20;;;;;;5022536;28;20224;-90
2023/01/30 04:31:13;;;;;;;16.07;10.83;;;0.20;95.10;;;;;;5019288;28;20173;-90
2023/01/30 04:33:40;;;;;;;16.80;11.47;;;0.30;94.40;;;;;;5003474;28;20192;-88
2023/01/30 04:36:07;;;;;;;13.73;12.20;;;0.40;94.20;;;;;;5019763;28;20209;-88
2023/01/30 04:38:34;;;;;;;14.40;11.53;;;0.30;94.70;;;;;;5001551;28;20235;-89
2023/01/30 04:41:00;;;;;;;14.07;12.40;;;0.40;94.70;;;;;;5017970;28;20177;-89
2023/01/30 04:43:27;;;;;;;15.17;12.30;;;0.40;94.90;;;;;;5001292;28;20272;-89
2023/01/30 04:45:53;;;;;;;13.83;12.23;;;0.40;95.50;;;;;;5001560;28;20198;-89
2023/01/30 04:48:20;;;;;;;16.47;11.77;;;0.30;95.40;;;;;;5019989;28;20557;-89
2023/01/30 04:50:48;;;;;;;16.00;11.70;;;0.30;95.50;;;;;;5018874;28;20178;-89
2023/01/30 04:53:15;;;;;;;14.70;11.23;;;0.30;94.60;;;;;;5019601;28;20182;-89
2023/01/30 04:55:41;;;;;;;16.67;10.53;;;0.40;93.90;;;;;;5027055;28;20201;-92
2023/01/30 04:58:06;;;;;;;14.30;10.70;;;0.30;93.80;;;;;;5019732;28;20183;-92
2023/01/30 05:00:32;;;;;;;13.07;9.80;;;0.40;94.20;;;;;;5036693;28;20177;-92
2023/01/30 05:02:58;;;;;;;13.67;10.63;;;0.30;93.90;;;;;;5019610;28;20220;-92
2023/01/30 05:05:25;;;;;;;13.60;11.03;;;0.40;93.20;;;;;;5036314;28;20242;-92
2023/01/30 05:07:51;;;;;;;12.80;10.43;;;0.30;93.60;;;;;;5019650;28;20362;-91
2023/01/30 05:10:17;;;;;;;11.73;10.50;;;0.30;94.30;;;;;;5036252;28;20182;-91
2023/01/30 05:12:43;;;;;;;13.37;10.80;;;0.30;93.40;;;;;;5011575;28;20190;-87
2023/01/30 05:15:10;;;;;;;12.33;10.00;;;0.30;94.10;;;;;;5001879;28;20177;-89
2023/01/30 05:17:36;;;;;;;11.57;10.23;;;0.30;94.90;;;;;;5000815;28;20202;-90
2023/01/30 05:20:03;;;;;;;14.20;10.73;;;0.20;94.80;;;;;;5115377;22;20268;-87
2023/01/30 05:22:29;;;;;;;14.17;11.27;;;0.10;95.60;;;;;;5016790;28;20205;-87
2023/01/30 05:24:55;;;;;;;13.13;9.93;;;0.30;94.50;;;;;;5017760;28;20709;-86
2023/01/30 05:27:20;;;;;;;14.07;10.33;;;0.30;94.30;;;;;;5000963;28;20187;-87
2023/01/30 05:29:46;;;;;;;12.37;10.57;;;0.30;94.50;;;;;;5008590;28;20268;-86
2023/01/30 05:32:16;;;;;;;13.73;11.10;;;0.20;95.30;;;;;;5017358;28;20213;-86
2023/01/30 05:34:42;;;;;;;15.73;11.50;;;0.20;96.10;;;;;;5018888;28;20188;-86
2023/01/30 05:37:09;;;;;;;12.80;10.53;;;0.20;96.70;;;;;;5013427;28;20189;-86
2023/01/30 05:39:34;;;;;;;15.03;11.27;;;0.00;97.30;;;;;;5017231;28;20235;-86
2023/01/30 05:42:00;;;;;;;13.20;10.90;;;0.00;97.90;;;;;;5019619;28;20205;-87
2023/01/30 05:44:26;;;;;;;13.90;11.07;;;0.00;98.70;;;;;;5018797;28;20194;-86
2023/01/30 05:46:51;;;;;;;16.70;12.23;;;0.10;98.80;;;;;;5001986;28;20178;-86
2023/01/30 05:49:17;;;;;;;11.73;10.10;;;0.20;98.20;;;;;;5011986;28;20256;-87
2023/01/30 05:51:43;;;;;;;13.30;10.40;;;0.20;97.70;;;;;;5019851;28;20196;-86
2023/01/30 05:54:08;;;;;;;13.20;9.63;;;0.10;97.60;;;;;;5014676;28;20178;-86
2023/01/30 05:56:34;;;;;;;16.57;11.53;;;0.20;97.90;;;;;;4996732;28;20193;-87
2023/01/30 05:59:01;;;;;;;12.60;9.77;;;0.20;97.60;;;;;;5007630;28;20830;-87
2023/01/30 06:01:27;;;;;;;13.03;10.37;;;0.20;97.20;;;;;;5015329;28;20541;-87
2023/01/30 06:03:54;;;;;;;12.17;10.50;;;0.20;97.70;;;;;;5016041;28;20178;-87
2023/01/30 06:06:20;;;;;;;11.90;9.37;;;0.20;97.00;;;;;;5016386;28;20181;-87
2023/01/30 06:08:46;;;;;;;10.77;9.20;;;0.20;97.70;;;;;;5007409;28;20194;-87
2023/01/30 06:11:14;;;;;;;10.97;9.63;;;0.30;98.10;;;;;;5015976;28;20683;-87
2023/01/30 06:13:40;;;;;;;11.77;10.27;;;0.20;99.40;;;;;;5015473;28;20182;-87
2023/01/30 06:16:08;;;;;;;13.07;10.63;;;0.30;98.80;;;;;;5018148;28;20782;-87
2023/01/30 06:18:34;;;;;;;12.70;10.50;;;0.20;99.20;;;;;;5014022;28;20212;-87
2023/01/30 06:21:00;;;;;;;14.33;10.90;;;0.10;99.80;;;;;;5028253;28;20259;-86
2023/01/30 06:23:26;;;;;;;13.83;11.47;;;0.10;99.90;;;;;;5025785;28;20639;-85
2023/01/30 06:25:53;;;;;;;16.13;11.60;;;0.10;99.90;;;;;;5014510;28;20178;-87
2023/01/30 06:28:19;;;;;;;12.73;10.73;;;0.00;99.90;;;;;;5016169;28;20848;-87
2023/01/30 06:30:45;;;;;;;16.23;12.43;;;0.10;99.90;;;;;;5016822;28;20687;-87
2023/01/30 06:33:11;;;;;;;11.37;9.83;;;0.00;99.90;;;;;;5015259;28;20185;-88
2023/01/30 06:35:37;;;;;;;13.40;10.87;;;0.10;99.90;;;;;;5009393;28;20214;-87
2023/01/30 06:38:04;;;;;;;14.03;11.10;;;0.10;99.90;;;;;;4993167;28;20189;-88
2023/01/30 06:40:29;;;;;;;14.37;11.17;;;0.00;99.90;;;;;;4999871;28;20213;-87
2023/01/30 06:42:58;;;;;;;13.20;11.03;;;0.10;99.90;;;;;;5001570;28;20669;-88
2023/01/30 06:45:26;;;;;;;12.57;10.83;;;0.00;99.90;;;;;;4998298;28;20182;-87
2023/01/30 06:48:03;;;;;;;13.80;10.97;;;0.20;99.90;;;;;;5004034;28;20201;-87
2023/01/30 06:50:32;;;;;;;15.17;10.87;;;0.20;99.90;;;;;;4997735;28;20218;-87
2023/01/30 06:53:21;;;;;;;14.80;11.33;;;0.30;99.90;;;;;;4998945;28;20935;-87
2023/01/30 06:55:58;;;;;;;13.07;11.07;;;0.10;99.90;;;;;;4997042;28;20202;-87
2023/01/30 06:58:33;;;;;;;15.00;11.83;;;0.20;99.90;;;;;;5003050;28;20213;-88
2023/01/30 07:01:02;;;;;;;13.93;10.13;;;0.20;99.90;;;;;;4997373;28;20274;-87
2023/01/30 07:03:27;;;;;;;12.53;10.00;;;0.30;99.90;;;;;;5002068;28;20321;-87
2023/01/30 07:05:56;;;;;;;13.97;10.10;;;0.30;99.90;;;;;;5002624;28;20232;-87
2023/01/30 07:08:22;;;;;;;13.60;9.93;;;0.30;99.90;;;;;;5010134;28;20199;-88
2023/01/30 07:10:48;;;;;;;15.10;10.47;;;0.20;99.90;;;;;;4998194;28;20194;-86
2023/01/30 07:13:16;;;;;;;11.67;10.40;;;0.20;99.90;;;;;;5005423;28;20186;-87
2023/01/30 07:15:43;;;;;;;13.43;10.47;;;0.30;99.90;;;;;;5003489;28;20189;-87
2023/01/30 07:18:09;;;;;;;13.47;10.43;;;0.30;99.90;;;;;;5002803;28;20201;-87
2023/01/30 07:20:37;;;;;;;14.53;11.57;;;0.20;99.90;;;;;;5002177;28;20217;-87
2023/01/30 07:23:05;;;;;;;16.00;10.73;;;0.20;99.90;;;;;;5000565;28;20201;-87
2023/01/30 07:25:31;;;;;;;12.57;9.87;;;0.10;99.90;;;;;;5015459;28;20254;-87
2023/01/30 07:27:59;;;;;;;12.63;10.40;;;0.10;99.90;;;;;;5016740;28;20217;-88
2023/01/30 07:30:27;;;;;;;14.20;11.07;;;0.10;99.90;;;;;;5018498;28;20237;-86
2023/01/30 07:32:57;;;;;;;13.43;10.37;;;0.10;99.90;;;;;;5026269;28;20182;-87
2023/01/30 07:35:28;;;;;;;14.03;10.63;;;0.10;99.90;;;;;;5014853;28;20179;-87
2023/01/30 07:37:54;;;;;;;13.70;10.37;;;0.00;99.90;;;;;;5030808;28;20197;-87
2023/01/30 07:40:21;;;;;;;12.30;9.73;;;0.10;99.90;;;;;;5031776;28;20197;-87
2023/01/30 07:43:04;;;;;;;13.37;10.40;;;0.20;99.90;;;;;;5024723;28;20555;-87
2023/01/30 07:45:47;;;;;;;13.47;10.97;;;0.20;99.90;;;;;;5014724;28;20173;-87
2023/01/30 07:48:18;;;;;;;15.70;11.63;;;0.10;99.90;;;;;;5015067;28;20651;-87
2023/01/30 07:50:44;;;;;;;13.07;11.50;;;0.10;99.90;;;;;;5013897;28;20205;-87
2023/01/30 07:53:12;;;;;;;14.73;11.47;;;0.10;99.90;;;;;;5013644;28;20194;-87
2023/01/30 07:55:37;;;;;;;13.03;11.30;;;0.10;99.90;;;;;;5015649;28;20200;-87
2023/01/30 07:58:03;;;;;;;14.23;10.97;;;0.10;99.90;;;;;;5015746;28;20186;-87
2023/01/30 08:00:29;;;;;;;13.13;10.60;;;0.10;99.90;;;;;;5015540;28;20263;-86
2023/01/30 08:02:55;;;;;;;12.90;9.73;;;0.10;99.90;;;;;;5015057;28;20333;-88
2023/01/30 08:05:20;;;;;;;12.60;10.57;;;0.20;99.90;;;;;;5014927;28;20209;-86
2023/01/30 08:07:46;;;;;;;14.40;11.43;;;0.20;99.90;;;;;;5015782;28;20186;-86
2023/01/30 08:10:12;;;;;;;10.67;8.33;;;0.20;99.90;;;;;;5015917;28;20202;-86
2023/01/30 08:12:39;;;;;;;13.43;10.43;;;0.20;99.90;;;;;;5015289;28;20761;-86
2023/01/30 08:15:06;;;;;;;14.10;11.80;;;0.20;99.90;;;;;;5003944;28;20185;-86
2023/01/30 08:17:32;;;;;;;14.07;11.57;;;0.30;99.90;;;;;;5013149;28;20671;-87
2023/01/30 08:19:57;;;;;;;14.97;10.97;;;0.20;99.90;;;;;;5014029;28;20221;-86
2023/01/30 08:22:23;;;;;;;14.03;11.10;;;0.30;99.90;;;;;;5014155;28;20201;-86
2023/01/30 08:25:28;;;;;;;16.53;12.23;;;0.40;99.90;;;;;;5013436;28;20698;-84
2023/01/30 08:28:31;;;;;;;12.13;9.90;;;0.30;99.90;;;;;;5022320;28;20212;-85
2023/01/30 08:31:00;;;;;;;11.97;8.57;;;0.40;99.90;;;;;;5021918;28;20219;-86
2023/01/30 08:37:03;;;;;;;11.33;8.93;;;0.50;99.90;;;;;;5022177;28;20266;-86
2023/01/30 08:39:55;;;;;;;13.87;10.87;;;0.60;99.90;;;;;;5020684;28;20213;-86
2023/01/30 08:42:21;;;;;;;13.83;10.03;;;0.50;99.90;;;;;;5019753;28;20233;-86
2023/01/30 08:45:30;;;;;;;;;;;;;;;;;;;;;
2023/01/30 08:48:43;;;;;;;13.87;10.70;;;0.50;99.90;;;;;;4998872;28;20285;-88
2023/01/30 08:51:48;;;;;;;13.47;10.83;;;0.40;99.90;;;;;;4998908;28;20193;-87
2023/01/30 08:54:48;;;;;;;13.87;11.37;;;0.40;99.90;;;;;;4979754;28;20214;-87
2023/01/30 08:57:14;;;;;;;15.37;11.53;;;0.50;99.90;;;;;;5016076;28;20823;-86
2023/01/30 08:59:46;;;;;;;14.87;11.87;;;0.50;99.90;;;;;;5019590;28;20201;-86
2023/01/30 09:02:38;;;;;;;13.10;10.77;;;0.40;99.90;;;;;;5021972;28;20285;-85
2023/01/30 09:06:03;;;;;;;13.93;10.37;;;0.50;99.90;;;;;;5021465;28;20220;-86
2023/01/30 09:12:46;;;;;;;;;;;;;;;;;;;;;
2023/01/30 09:15:45;;;;;;;14.47;11.03;;;0.60;99.90;;;;;;5003598;28;20283;-86
2023/01/30 09:46:58;;;;;;;;;;;;;;;;;;;;;
2023/01/30 10:01:42;;;;;;;;;;;;;;;;;;;;;
2023/01/30 10:12:03;;;;;;;13.37;11.10;;;0.90;99.90;;;;;;4813100;29;20178;-87
2023/01/30 10:15:19;;;;;;;;;;;;;;;;;;;;;
2023/01/30 10:18:39;;;;;;;;;;;;;;;;;;;;;
2023/01/30 10:21:46;;;;;;;12.13;8.97;;;1.00;99.90;;;;;;5023450;28;20221;-85
2023/01/30 10:24:51;;;;;;;9.97;7.93;;;1.00;99.90;;;;;;5023642;28;20208;-84
2023/01/30 10:27:23;;;;;;;17.20;11.53;;;1.00;99.90;;;;;;4963604;28;20201;-87
2023/01/30 10:30:33;;;;;;;13.87;9.67;;;1.00;99.90;;;;;;4965457;28;20230;-86
2023/01/30 10:33:31;;;;;;;16.60;11.53;;;1.00;99.90;;;;;;4942288;29;20199;-86
2023/01/30 10:40:16;;;;;;;16.17;11.83;;;0.90;99.90;;;;;;5003224;28;20205;-86
2023/01/30 10:43:22;;;;;;;;;;;;;;;;;;;;;
2023/01/30 10:46:39;;;;;;;16.20;12.83;;;1.10;99.90;;;;;;5026652;28;20253;-86
2023/01/30 10:49:35;;;;;;;14.53;10.43;;;1.00;99.90;;;;;;4983972;28;20747;-86
2023/01/30 10:52:56;;;;;;;16.03;11.10;;;1.10;99.90;;;;;;5005804;28;20182;-87
2023/01/30 10:55:52;;;;;;;16.40;10.90;;;1.10;99.90;;;;;;5007242;28;20332;-87
2023/01/30 10:58:42;;;;;;;13.73;10.90;;;1.20;99.90;;;;;;5019878;28;20200;-86
2023/01/30 11:01:50;;;;;;;12.10;9.50;;;1.20;99.90;;;;;;5027083;28;20224;-86
2023/01/30 11:05:26;;;;;;;11.00;8.80;;;1.20;99.90;;;;;;5026080;28;20185;-86
2023/01/30 11:08:10;;;;;;;14.43;10.60;;;1.20;99.90;;;;;;4949140;28;20413;-85
2023/01/30 11:10:38;;;;;;;14.07;11.57;;;1.10;99.90;;;;;;4988299;28;20207;-86
2023/01/30 11:13:56;;;;;;;15.93;11.40;;;1.10;99.90;;;;;;5025427;28;20197;-86
2023/01/30 11:16:50;;;;;;;17.33;11.80;;;1.10;99.90;;;;;;5024630;28;20665;-86
2023/01/30 11:23:47;;;;;;;15.63;10.70;;;1.10;99.90;;;;;;5004105;28;20460;-85
2023/01/30 11:31:11;;;;;;;8.47;7.07;;;1.10;99.90;;;;;;4983926;28;20312;-87
2023/01/30 11:38:02;;;;;;;14.30;11.60;;;1.00;99.90;;;;;;4991927;28;20197;-86
2023/01/30 11:44:46;;;;;;;15.40;11.27;;;1.00;99.90;;;;;;4964572;29;20221;-85
2023/01/30 11:47:54;;;;;;;;;;;;;;;;;;;;;
2023/01/30 11:50:56;;;;;;;;;;;;;;;;;;;;;
2023/01/30 11:53:31;;;;;;;17.43;12.80;;;1.10;99.90;;;;;;4991196;28;20254;-92
2023/01/30 11:56:17;;;;;;;20.77;12.27;;;1.00;99.90;;;;;;5006863;28;20386;-90
2023/01/30 11:59:06;;;;;;;14.73;11.30;;;1.00;99.90;;;;;;5007081;28;20174;-90
2023/01/30 12:01:48;;;;;;;17.50;12.83;;;0.90;99.90;;;;;;4980650;28;20472;-90
2023/01/30 12:04:19;;;;;;;16.80;13.03;;;0.90;99.90;;;;;;5005745;28;20675;-90
2023/01/30 12:06:45;;;;;;;20.10;13.53;;;0.90;99.90;;;;;;5005825;28;20174;-90
2023/01/30 12:09:36;;;;;;;16.27;13.10;;;0.80;99.90;;;;;;4986572;28;20193;-91
2023/01/30 12:12:36;;;;;;;14.37;11.73;;;0.90;99.90;;;;;;5003298;28;20189;-90
2023/01/30 12:15:37;;;;;;;19.00;13.30;;;0.80;99.90;;;;;;4977628;28;20194;-90
2023/01/30 12:19:04;;;;;;;;;;;;;;;;;;;;;
2023/01/30 12:25:20;;;;;;;19.53;12.60;;;0.90;99.90;;;;;;4999175;28;20666;-90
2023/01/30 12:28:15;;;;;;;17.80;12.10;;;0.90;99.90;;;;;;5002678;28;20269;-90
2023/01/30 12:31:16;;;;;;;17.03;13.63;;;0.90;99.90;;;;;;5003471;28;20202;-90
2023/01/30 12:44:36;;;;;;;17.60;12.87;;;0.90;99.90;;;;;;4947147;28;20274;-91
2023/01/30 12:51:21;;;;;;;;;;;;;;;;;;;;;
2023/01/30 12:54:12;;;;;;;20.87;15.00;;;1.00;99.90;;;;;;4975310;28;20259;-92
2023/01/30 12:56:59;;;;;;;21.03;14.50;;;0.90;99.90;;;;;;4976870;28;20631;-92
2023/01/30 13:03:07;;;;;;;17.93;13.53;;;1.10;99.90;;;;;;1343944;26;20236;-87
2023/01/30 13:09:13;;;;;;;15.73;12.53;;;1.10;99.90;;;;;;5047894;28;20201;-87
2023/01/30 13:11:50;;;;;;;14.93;11.07;;;1.20;99.90;;;;;;5042602;28;20173;-87
2023/01/30 13:14:35;;;;;;;19.67;13.73;;;1.30;99.90;;;;;;5041621;28;20177;-86
2023/01/30 13:17:17;;;;;;;17.10;12.67;;;1.20;99.90;;;;;;5026310;28;20228;-87
2023/01/30 13:19:58;;;;;;;13.87;10.40;;;1.30;99.90;;;;;;5027589;28;20197;-86
2023/01/30 13:22:35;;;;;;;12.63;10.60;;;1.30;99.90;;;;;;5045942;28;20201;-86
2023/01/30 13:26:03;;;;;;;;;;;;;;;;;;;;;
2023/01/30 13:29:32;;;;;;;17.80;12.00;;;1.30;99.90;;;;;;5041165;28;20214;-87
2023/01/30 13:32:40;;;;;;;17.43;13.20;;;1.30;99.90;;;;;;5042189;28;20700;-87
2023/01/30 13:35:23;;;;;;;16.00;12.23;;;1.30;99.90;;;;;;5043609;28;20176;-86
2023/01/30 13:38:09;;;;;;;17.00;12.80;;;1.40;99.90;;;;;;5040069;28;20177;-86
2023/01/30 13:40:50;;;;;;;15.50;12.00;;;1.50;99.90;;;;;;5033624;28;20200;-85
2023/01/30 13:43:30;;;;;;;15.60;11.03;;;1.40;99.90;;;;;;5044855;28;20204;-86
2023/01/30 13:46:00;;;;;;;15.80;11.67;;;1.50;99.90;;;;;;5046532;28;20256;-86
2023/01/30 13:48:32;;;;;;;16.97;13.63;;;1.40;99.90;;;;;;5044491;28;20201;-86
2023/01/30 13:50:57;;;;;;;16.70;12.30;;;1.40;99.90;;;;;;5045709;28;20821;-86
2023/01/30 13:53:38;;;;;;;14.33;12.07;;;1.40;99.90;;;;;;5044847;28;20180;-86
2023/01/30 13:56:21;;;;;;;14.73;11.80;;;1.50;99.90;;;;;;5045210;28;20169;-85
2023/01/30 13:59:09;;;;;;;15.33;12.27;;;1.40;99.90;;;;;;5050094;28;20241;-87
2023/01/30 14:02:03;;;;;;;17.17;12.67;;;1.30;99.90;;;;;;5054716;28;20173;-85
2023/01/30 14:04:41;;;;;;;15.93;12.40;;;1.40;99.90;;;;;;5049734;28;20411;-84
2023/01/30 14:07:40;;;;;;;14.63;11.90;;;1.40;99.90;;;;;;5042734;28;20169;-86
2023/01/30 14:10:09;;;;;;;14.87;11.07;;;1.40;99.90;;;;;;5044937;28;20248;-86
2023/01/30 14:12:47;;;;;;;15.03;11.33;;;1.50;99.90;;;;;;5048643;28;20181;-86
2023/01/30 14:15:12;;;;;;;15.20;12.73;;;1.50;99.90;;;;;;5044127;28;20200;-86
2023/01/30 14:18:01;;;;;;;13.77;11.47;;;1.50;99.90;;;;;;5048286;28;20189;-86
2023/01/30 14:20:50;;;;;;;14.53;11.40;;;1.60;99.90;;;;;;5047851;28;20205;-87
2023/01/30 14:23:31;;;;;;;15.23;10.93;;;1.50;99.90;;;;;;5046862;28;20231;-86
2023/01/30 14:25:57;;;;;;;13.47;10.03;;;1.60;99.90;;;;;;5047084;28;20172;-87
2023/01/30 14:28:23;;;;;;;14.47;11.77;;;1.70;99.90;;;;;;5046804;28;20185;-86
2023/01/30 14:30:50;;;;;;;15.80;11.67;;;1.70;99.90;;;;;;5050258;28;20203;-87
2023/01/30 14:33:22;;;;;;;14.40;11.43;;;1.60;99.90;;;;;;5060400;28;20198;-87
2023/01/30 14:36:00;;;;;;;12.17;10.10;;;1.70;99.90;;;;;;5059857;28;20169;-86
2023/01/30 14:38:30;;;;;;;14.37;10.33;;;1.80;99.90;;;;;;5060667;28;20157;-88
2023/01/30 14:40:59;;;;;;;17.13;11.40;;;1.80;99.90;;;;;;5059428;28;20162;-87
2023/01/30 14:43:24;;;;;;;15.87;11.83;;;1.70;99.90;;;;;;5046316;28;20927;-85
2023/01/30 14:45:52;;;;;;;13.83;10.80;;;1.70;99.90;;;;;;5044753;28;20181;-86
2023/01/30 14:49:03;;;;;;;12.40;11.03;;;1.80;99.90;;;;;;5043415;28;20239;-87
2023/01/30 14:51:35;;;;;;;11.73;9.67;;;1.80;99.90;;;;;;5044209;28;20173;-86
2023/01/30 14:54:15;;;;;;;15.87;11.47;;;1.80;99.90;;;;;;5044506;28;20666;-85
2023/01/30 14:56:53;;;;;;;16.10;11.30;;;1.90;99.90;;;;;;5043030;28;20186;-86
2023/01/30 14:59:39;;;;;;;17.23;11.67;;;1.80;99.90;;;;;;5045452;28;20211;-86
2023/01/30 15:02:05;;;;;;;16.30;11.77;;;1.80;99.90;;;;;;5046001;28;20212;-87
2023/01/30 15:04:47;;;;;;;14.33;12.23;;;1.80;99.90;;;;;;5045805;28;20177;-87
2023/01/30 15:07:31;;;;;;;15.47;12.43;;;1.70;99.90;;;;;;5046808;28;20168;-86
2023/01/30 15:10:22;;;;;;;15.20;11.37;;;1.80;99.90;;;;;;5045980;28;20219;-86
2023/01/30 15:13:12;;;;;;;13.87;10.67;;;2.00;99.90;;;;;;5044263;28;20185;-87
2023/01/30 15:16:16;;;;;;;16.03;10.97;;;2.00;99.90;;;;;;5045311;28;20181;-86
2023/01/30 15:19:03;;;;;;;15.37;10.80;;;2.00;99.90;;;;;;5018153;28;20249;-86
2023/01/30 15:21:36;;;;;;;12.83;10.03;;;2.10;99.90;;;;;;5034466;28;20185;-86